sensor_id;sensor_type;location;lat;lon;timestamp;P1;durP1;ratioP1;P2;durP2;ratioP2
51913;SDS011;37940;53.002;6.930;2023-01-16T00:00:32;7.43;;;2.83;;
51913;SDS011;37940;53.002;6.930;2023-01-16T00:02:58;9.23;;;2.70;;
51913;SDS011;37940;53.002;6.930;2023-01-16T00:05:23;9.40;;;2.70;;
51913;SDS011;37940;53.002;6.930;2023-01-16T00:07:49;5.05;;;2.50;;
51913;SDS011;37940;53.002;6.930;2023-01-16T00:10:15;9.70;;;2.92;;
51913;SDS011;37940;53.002;6.930;2023-01-16T00:12:41;9.90;;;2.88;;
51913;SDS011;37940;53.002;6.930;2023-01-16T00:15:07;11.95;;;3.13;;
51913;SDS011;37940;53.002;6.930;2023-01-16T00:17:33;5.75;;;2.88;;
51913;SDS011;37940;53.002;6.930;2023-01-16T00:19:59;7.95;;;2.90;;
51913;SDS011;37940;53.002;6.930;2023-01-16T00:22:25;8.75;;;2.58;;
51913;SDS011;37940;53.002;6.930;2023-01-16T00:24:50;7.38;;;2.55;;
51913;SDS011;37940;53.002;6.930;2023-01-16T00:27:16;8.63;;;2.53;;
51913;SDS011;37940;53.002;6.930;2023-01-16T00:29:42;8.85;;;3.10;;
51913;SDS011;37940;53.002;6.930;2023-01-16T00:32:08;6.55;;;2.60;;
51913;SDS011;37940;53.002;6.930;2023-01-16T00:34:35;5.20;;;2.50;;
51913;SDS011;37940;53.002;6.930;2023-01-16T00:37:01;10.60;;;3.17;;
51913;SDS011;37940;53.002;6.930;2023-01-16T00:39:27;6.53;;;2.88;;
51913;SDS011;37940;53.002;6.930;2023-01-16T00:41:53;9.95;;;3.25;;
51913;SDS011;37940;53.002;6.930;2023-01-16T00:44:18;7.82;;;2.90;;
51913;SDS011;37940;53.002;6.930;2023-01-16T00:46:44;8.10;;;2.97;;
51913;SDS011;37940;53.002;6.930;2023-01-16T00:49:10;9.07;;;3.25;;
51913;SDS011;37940;53.002;6.930;2023-01-16T00:51:36;12.15;;;3.13;;
51913;SDS011;37940;53.002;6.930;2023-01-16T00:54:01;11.18;;;3.13;;
51913;SDS011;37940;53.002;6.930;2023-01-16T00:56:27;9.85;;;2.95;;
51913;SDS011;37940;53.002;6.930;2023-01-16T00:58:53;11.13;;;3.00;;
51913;SDS011;37940;53.002;6.930;2023-01-16T01:01:19;9.55;;;2.88;;
51913;SDS011;37940;53.002;6.930;2023-01-16T01:03:44;6.53;;;2.88;;
51913;SDS011;37940;53.002;6.930;2023-01-16T01:06:10;7.38;;;2.53;;
51913;SDS011;37940;53.002;6.930;2023-01-16T01:08:36;8.55;;;3.03;;
51913;SDS011;37940;53.002;6.930;2023-01-16T01:11:09;10.77;;;3.03;;
51913;SDS011;37940;53.002;6.930;2023-01-16T01:13:37;13.80;;;3.30;;
51913;SDS011;37940;53.002;6.930;2023-01-16T01:16:03;10.30;;;2.92;;
51913;SDS011;37940;53.002;6.930;2023-01-16T01:18:30;9.25;;;2.88;;
51913;SDS011;37940;53.002;6.930;2023-01-16T01:20:56;9.50;;;3.30;;
51913;SDS011;37940;53.002;6.930;2023-01-16T01:23:21;6.72;;;2.70;;
51913;SDS011;37940;53.002;6.930;2023-01-16T01:25:47;8.32;;;2.90;;
51913;SDS011;37940;53.002;6.930;2023-01-16T01:28:14;9.35;;;3.22;;
51913;SDS011;37940;53.002;6.930;2023-01-16T01:30:40;8.70;;;3.10;;
51913;SDS011;37940;53.002;6.930;2023-01-16T01:33:06;11.57;;;2.78;;
51913;SDS011;37940;53.002;6.930;2023-01-16T01:35:33;8.15;;;2.53;;
51913;SDS011;37940;53.002;6.930;2023-01-16T01:37:59;9.85;;;2.58;;
51913;SDS011;37940;53.002;6.930;2023-01-16T01:40:25;10.07;;;2.70;;
51913;SDS011;37940;53.002;6.930;2023-01-16T01:42:51;10.43;;;2.63;;
51913;SDS011;37940;53.002;6.930;2023-01-16T01:45:21;9.23;;;2.80;;
51913;SDS011;37940;53.002;6.930;2023-01-16T01:50:39;9.50;;;3.08;;
51913;SDS011;37940;53.002;6.930;2023-01-16T01:53:12;8.52;;;2.45;;
51913;SDS011;37940;53.002;6.930;2023-01-16T01:55:44;8.75;;;2.80;;
51913;SDS011;37940;53.002;6.930;2023-01-16T01:58:12;8.73;;;2.67;;
51913;SDS011;37940;53.002;6.930;2023-01-16T02:00:44;12.35;;;2.78;;
51913;SDS011;37940;53.002;6.930;2023-01-16T02:03:11;11.70;;;3.00;;
51913;SDS011;37940;53.002;6.930;2023-01-16T02:05:48;8.52;;;2.53;;
51913;SDS011;37940;53.002;6.930;2023-01-16T02:08:16;10.02;;;2.53;;
51913;SDS011;37940;53.002;6.930;2023-01-16T02:10:45;10.52;;;2.72;;
51913;SDS011;37940;53.002;6.930;2023-01-16T02:13:15;10.10;;;2.63;;
51913;SDS011;37940;53.002;6.930;2023-01-16T02:15:41;11.57;;;2.85;;
51913;SDS011;37940;53.002;6.930;2023-01-16T02:18:27;10.13;;;2.63;;
51913;SDS011;37940;53.002;6.930;2023-01-16T02:43:50;8.23;;;2.20;;
51913;SDS011;37940;53.002;6.930;2023-01-16T02:46:25;6.97;;;2.40;;
51913;SDS011;37940;53.002;6.930;2023-01-16T02:49:16;9.52;;;2.33;;
51913;SDS011;37940;53.002;6.930;2023-01-16T02:57:31;10.68;;;2.38;;
51913;SDS011;37940;53.002;6.930;2023-01-16T02:59:52;10.90;;;2.30;;
51913;SDS011;37940;53.002;6.930;2023-01-16T03:02:18;5.72;;;2.20;;
51913;SDS011;37940;53.002;6.930;2023-01-16T03:17:46;8.15;;;2.47;;
51913;SDS011;37940;53.002;6.930;2023-01-16T03:20:39;11.15;;;2.70;;
51913;SDS011;37940;53.002;6.930;2023-01-16T03:23:21;7.25;;;2.47;;
51913;SDS011;37940;53.002;6.930;2023-01-16T03:25:56;11.55;;;2.70;;
51913;SDS011;37940;53.002;6.930;2023-01-16T03:36:50;12.00;;;2.80;;
51913;SDS011;37940;53.002;6.930;2023-01-16T03:39:22;6.40;;;2.30;;
51913;SDS011;37940;53.002;6.930;2023-01-16T03:41:51;8.15;;;2.75;;
51913;SDS011;37940;53.002;6.930;2023-01-16T03:44:29;7.97;;;2.67;;
51913;SDS011;37940;53.002;6.930;2023-01-16T03:47:00;7.75;;;2.58;;
51913;SDS011;37940;53.002;6.930;2023-01-16T03:49:30;9.88;;;3.15;;
51913;SDS011;37940;53.002;6.930;2023-01-16T03:52:00;10.25;;;3.17;;
51913;SDS011;37940;53.002;6.930;2023-01-16T03:57:04;11.93;;;3.40;;
51913;SDS011;37940;53.002;6.930;2023-01-16T03:59:35;13.48;;;3.80;;
51913;SDS011;37940;53.002;6.930;2023-01-16T04:02:04;9.05;;;3.17;;
51913;SDS011;37940;53.002;6.930;2023-01-16T04:04:49;7.45;;;3.60;;
51913;SDS011;37940;53.002;6.930;2023-01-16T04:07:20;12.68;;;4.18;;
51913;SDS011;37940;53.002;6.930;2023-01-16T04:09:58;11.23;;;3.70;;
51913;SDS011;37940;53.002;6.930;2023-01-16T04:12:35;10.13;;;3.60;;
51913;SDS011;37940;53.002;6.930;2023-01-16T04:15:05;7.53;;;3.88;;
51913;SDS011;37940;53.002;6.930;2023-01-16T04:17:33;10.63;;;3.78;;
51913;SDS011;37940;53.002;6.930;2023-01-16T04:20:00;10.00;;;3.97;;
51913;SDS011;37940;53.002;6.930;2023-01-16T04:22:27;9.07;;;4.18;;
51913;SDS011;37940;53.002;6.930;2023-01-16T04:24:55;10.82;;;4.28;;
51913;SDS011;37940;53.002;6.930;2023-01-16T04:27:23;9.48;;;4.28;;
51913;SDS011;37940;53.002;6.930;2023-01-16T04:29:49;10.48;;;4.40;;
51913;SDS011;37940;53.002;6.930;2023-01-16T04:32:15;8.73;;;4.32;;
51913;SDS011;37940;53.002;6.930;2023-01-16T04:34:41;11.80;;;4.55;;
51913;SDS011;37940;53.002;6.930;2023-01-16T04:37:07;8.73;;;4.55;;
51913;SDS011;37940;53.002;6.930;2023-01-16T04:39:33;9.05;;;4.82;;
51913;SDS011;37940;53.002;6.930;2023-01-16T04:41:58;10.65;;;4.65;;
51913;SDS011;37940;53.002;6.930;2023-01-16T04:44:24;9.13;;;4.40;;
51913;SDS011;37940;53.002;6.930;2023-01-16T04:46:50;10.38;;;4.72;;
51913;SDS011;37940;53.002;6.930;2023-01-16T04:49:16;9.70;;;5.18;;
51913;SDS011;37940;53.002;6.930;2023-01-16T04:51:41;7.30;;;5.10;;
51913;SDS011;37940;53.002;6.930;2023-01-16T04:54:09;9.48;;;5.50;;
51913;SDS011;37940;53.002;6.930;2023-01-16T04:56:40;10.85;;;6.28;;
51913;SDS011;37940;53.002;6.930;2023-01-16T04:59:07;11.13;;;7.72;;
51913;SDS011;37940;53.002;6.930;2023-01-16T05:01:33;11.55;;;7.82;;
51913;SDS011;37940;53.002;6.930;2023-01-16T05:04:00;14.40;;;8.02;;
51913;SDS011;37940;53.002;6.930;2023-01-16T05:06:26;17.90;;;8.85;;
51913;SDS011;37940;53.002;6.930;2023-01-16T05:08:52;15.70;;;8.98;;
51913;SDS011;37940;53.002;6.930;2023-01-16T05:11:18;14.35;;;8.88;;
51913;SDS011;37940;53.002;6.930;2023-01-16T05:13:44;16.10;;;9.85;;
51913;SDS011;37940;53.002;6.930;2023-01-16T05:16:09;18.88;;;10.38;;
51913;SDS011;37940;53.002;6.930;2023-01-16T05:18:35;18.70;;;10.13;;
51913;SDS011;37940;53.002;6.930;2023-01-16T05:21:01;16.05;;;11.05;;
51913;SDS011;37940;53.002;6.930;2023-01-16T05:23:28;15.80;;;10.73;;
51913;SDS011;37940;53.002;6.930;2023-01-16T05:25:54;18.17;;;11.63;;
51913;SDS011;37940;53.002;6.930;2023-01-16T05:28:20;19.85;;;11.30;;
51913;SDS011;37940;53.002;6.930;2023-01-16T05:30:49;17.25;;;10.90;;
51913;SDS011;37940;53.002;6.930;2023-01-16T05:33:15;17.98;;;11.75;;
51913;SDS011;37940;53.002;6.930;2023-01-16T05:35:41;20.02;;;12.13;;
51913;SDS011;37940;53.002;6.930;2023-01-16T05:38:07;21.85;;;12.55;;
51913;SDS011;37940;53.002;6.930;2023-01-16T05:40:33;24.48;;;11.75;;
51913;SDS011;37940;53.002;6.930;2023-01-16T05:42:59;19.27;;;12.27;;
51913;SDS011;37940;53.002;6.930;2023-01-16T05:45:24;20.55;;;11.82;;
51913;SDS011;37940;53.002;6.930;2023-01-16T05:47:50;19.30;;;12.00;;
51913;SDS011;37940;53.002;6.930;2023-01-16T05:50:16;19.55;;;11.63;;
51913;SDS011;37940;53.002;6.930;2023-01-16T05:52:42;20.85;;;11.80;;
51913;SDS011;37940;53.002;6.930;2023-01-16T05:55:07;22.05;;;10.75;;
51913;SDS011;37940;53.002;6.930;2023-01-16T05:57:33;19.00;;;10.75;;
51913;SDS011;37940;53.002;6.930;2023-01-16T05:59:59;18.35;;;11.00;;
51913;SDS011;37940;53.002;6.930;2023-01-16T06:02:25;20.85;;;11.13;;
51913;SDS011;37940;53.002;6.930;2023-01-16T06:04:51;20.65;;;11.15;;
51913;SDS011;37940;53.002;6.930;2023-01-16T06:07:17;19.05;;;10.98;;
51913;SDS011;37940;53.002;6.930;2023-01-16T06:09:43;19.60;;;11.38;;
51913;SDS011;37940;53.002;6.930;2023-01-16T06:12:12;19.88;;;11.00;;
51913;SDS011;37940;53.002;6.930;2023-01-16T06:14:40;20.05;;;10.93;;
51913;SDS011;37940;53.002;6.930;2023-01-16T06:17:06;20.70;;;11.25;;
51913;SDS011;37940;53.002;6.930;2023-01-16T06:19:31;18.33;;;10.05;;
51913;SDS011;37940;53.002;6.930;2023-01-16T06:21:57;20.27;;;9.85;;
51913;SDS011;37940;53.002;6.930;2023-01-16T06:24:23;19.80;;;9.55;;
51913;SDS011;37940;53.002;6.930;2023-01-16T06:26:49;18.10;;;8.52;;
51913;SDS011;37940;53.002;6.930;2023-01-16T06:29:15;16.73;;;8.15;;
51913;SDS011;37940;53.002;6.930;2023-01-16T06:31:40;14.85;;;7.95;;
51913;SDS011;37940;53.002;6.930;2023-01-16T06:34:06;16.35;;;8.35;;
51913;SDS011;37940;53.002;6.930;2023-01-16T06:36:32;14.95;;;7.70;;
51913;SDS011;37940;53.002;6.930;2023-01-16T06:38:58;16.10;;;7.65;;
51913;SDS011;37940;53.002;6.930;2023-01-16T06:41:24;14.10;;;7.63;;
51913;SDS011;37940;53.002;6.930;2023-01-16T06:43:49;14.35;;;7.15;;
51913;SDS011;37940;53.002;6.930;2023-01-16T06:46:15;19.20;;;7.72;;
51913;SDS011;37940;53.002;6.930;2023-01-16T06:48:41;16.73;;;7.50;;
51913;SDS011;37940;53.002;6.930;2023-01-16T06:51:07;15.32;;;7.40;;
51913;SDS011;37940;53.002;6.930;2023-01-16T06:53:35;12.88;;;7.18;;
51913;SDS011;37940;53.002;6.930;2023-01-16T06:56:01;18.30;;;8.32;;
51913;SDS011;37940;53.002;6.930;2023-01-16T06:58:28;14.63;;;7.30;;
51913;SDS011;37940;53.002;6.930;2023-01-16T07:00:53;15.65;;;7.80;;
51913;SDS011;37940;53.002;6.930;2023-01-16T07:03:20;20.30;;;8.05;;
51913;SDS011;37940;53.002;6.930;2023-01-16T07:05:47;18.35;;;8.57;;
51913;SDS011;37940;53.002;6.930;2023-01-16T07:08:13;31.13;;;16.27;;
51913;SDS011;37940;53.002;6.930;2023-01-16T07:10:39;17.30;;;7.88;;
51913;SDS011;37940;53.002;6.930;2023-01-16T07:13:05;17.08;;;8.50;;
51913;SDS011;37940;53.002;6.930;2023-01-16T07:15:30;20.95;;;8.10;;
51913;SDS011;37940;53.002;6.930;2023-01-16T07:18:15;13.23;;;7.10;;
51913;SDS011;37940;53.002;6.930;2023-01-16T07:21:02;17.55;;;7.28;;
51913;SDS011;37940;53.002;6.930;2023-01-16T07:23:52;17.17;;;7.13;;
51913;SDS011;37940;53.002;6.930;2023-01-16T07:26:22;14.40;;;7.15;;
51913;SDS011;37940;53.002;6.930;2023-01-16T07:28:49;13.60;;;7.00;;
51913;SDS011;37940;53.002;6.930;2023-01-16T07:31:17;15.23;;;7.68;;
51913;SDS011;37940;53.002;6.930;2023-01-16T07:33:42;17.25;;;7.50;;
51913;SDS011;37940;53.002;6.930;2023-01-16T07:36:08;16.35;;;7.35;;
51913;SDS011;37940;53.002;6.930;2023-01-16T07:38:34;18.05;;;7.40;;
51913;SDS011;37940;53.002;6.930;2023-01-16T07:41:00;14.00;;;7.10;;
51913;SDS011;37940;53.002;6.930;2023-01-16T07:43:26;20.55;;;7.78;;
51913;SDS011;37940;53.002;6.930;2023-01-16T07:45:51;14.52;;;7.68;;
51913;SDS011;37940;53.002;6.930;2023-01-16T07:48:21;22.85;;;7.45;;
51913;SDS011;37940;53.002;6.930;2023-01-16T07:50:54;16.23;;;7.25;;
51913;SDS011;37940;53.002;6.930;2023-01-16T07:53:22;16.23;;;7.40;;
51913;SDS011;37940;53.002;6.930;2023-01-16T07:55:50;15.15;;;7.05;;
51913;SDS011;37940;53.002;6.930;2023-01-16T07:58:17;16.17;;;7.35;;
51913;SDS011;37940;53.002;6.930;2023-01-16T08:00:44;18.80;;;7.85;;
51913;SDS011;37940;53.002;6.930;2023-01-16T08:03:10;20.38;;;9.20;;
51913;SDS011;37940;53.002;6.930;2023-01-16T08:05:38;19.65;;;8.65;;
51913;SDS011;37940;53.002;6.930;2023-01-16T08:08:04;20.25;;;8.40;;
51913;SDS011;37940;53.002;6.930;2023-01-16T08:10:29;16.48;;;8.85;;
51913;SDS011;37940;53.002;6.930;2023-01-16T08:12:55;14.02;;;8.65;;
51913;SDS011;37940;53.002;6.930;2023-01-16T08:15:21;14.60;;;7.60;;
51913;SDS011;37940;53.002;6.930;2023-01-16T08:17:47;17.75;;;9.32;;
51913;SDS011;37940;53.002;6.930;2023-01-16T08:20:13;19.60;;;9.75;;
51913;SDS011;37940;53.002;6.930;2023-01-16T08:22:43;16.92;;;8.68;;
51913;SDS011;37940;53.002;6.930;2023-01-16T08:25:13;16.20;;;8.02;;
51913;SDS011;37940;53.002;6.930;2023-01-16T08:27:40;17.05;;;8.40;;
51913;SDS011;37940;53.002;6.930;2023-01-16T08:30:06;13.38;;;7.95;;
51913;SDS011;37940;53.002;6.930;2023-01-16T08:32:33;13.70;;;6.82;;
51913;SDS011;37940;53.002;6.930;2023-01-16T08:34:59;17.45;;;7.43;;
51913;SDS011;37940;53.002;6.930;2023-01-16T08:37:24;15.45;;;6.90;;
51913;SDS011;37940;53.002;6.930;2023-01-16T08:39:50;16.17;;;7.15;;
51913;SDS011;37940;53.002;6.930;2023-01-16T08:42:16;11.30;;;6.78;;
51913;SDS011;37940;53.002;6.930;2023-01-16T08:45:01;18.05;;;6.28;;
51913;SDS011;37940;53.002;6.930;2023-01-16T08:47:45;11.88;;;5.60;;
51913;SDS011;37940;53.002;6.930;2023-01-16T08:50:34;10.60;;;5.40;;
51913;SDS011;37940;53.002;6.930;2023-01-16T08:53:18;12.00;;;5.07;;
51913;SDS011;37940;53.002;6.930;2023-01-16T08:55:44;14.57;;;5.10;;
51913;SDS011;37940;53.002;6.930;2023-01-16T08:58:09;11.10;;;4.90;;
51913;SDS011;37940;53.002;6.930;2023-01-16T09:00:35;10.10;;;4.82;;
51913;SDS011;37940;53.002;6.930;2023-01-16T09:03:01;9.95;;;4.90;;
51913;SDS011;37940;53.002;6.930;2023-01-16T09:05:27;8.93;;;4.82;;
51913;SDS011;37940;53.002;6.930;2023-01-16T09:07:53;10.35;;;4.85;;
51913;SDS011;37940;53.002;6.930;2023-01-16T09:10:19;10.10;;;4.15;;
51913;SDS011;37940;53.002;6.930;2023-01-16T09:12:48;8.45;;;4.43;;
51913;SDS011;37940;53.002;6.930;2023-01-16T09:15:32;10.70;;;4.65;;
51913;SDS011;37940;53.002;6.930;2023-01-16T09:18:01;9.55;;;4.15;;
51913;SDS011;37940;53.002;6.930;2023-01-16T09:20:26;10.43;;;5.00;;
51913;SDS011;37940;53.002;6.930;2023-01-16T09:22:59;13.82;;;5.28;;
51913;SDS011;37940;53.002;6.930;2023-01-16T09:25:27;13.68;;;5.72;;
51913;SDS011;37940;53.002;6.930;2023-01-16T09:27:53;8.77;;;4.00;;
51913;SDS011;37940;53.002;6.930;2023-01-16T09:30:19;7.38;;;3.90;;
51913;SDS011;37940;53.002;6.930;2023-01-16T09:32:46;6.68;;;3.60;;
51913;SDS011;37940;53.002;6.930;2023-01-16T09:35:12;9.55;;;3.95;;
51913;SDS011;37940;53.002;6.930;2023-01-16T09:37:39;8.30;;;3.42;;
51913;SDS011;37940;53.002;6.930;2023-01-16T09:40:08;11.77;;;4.22;;
51913;SDS011;37940;53.002;6.930;2023-01-16T09:45:53;7.00;;;3.30;;
51913;SDS011;37940;53.002;6.930;2023-01-16T09:49:08;6.60;;;3.20;;
51913;SDS011;37940;53.002;6.930;2023-01-16T09:51:24;7.68;;;3.78;;
51913;SDS011;37940;53.002;6.930;2023-01-16T09:56:56;6.43;;;3.13;;
51913;SDS011;37940;53.002;6.930;2023-01-16T09:59:47;6.22;;;2.85;;
51913;SDS011;37940;53.002;6.930;2023-01-16T10:05:01;10.35;;;2.75;;
51913;SDS011;37940;53.002;6.930;2023-01-16T10:12:36;5.93;;;2.95;;
51913;SDS011;37940;53.002;6.930;2023-01-16T10:15:16;5.28;;;2.65;;
51913;SDS011;37940;53.002;6.930;2023-01-16T10:18:02;7.05;;;2.65;;
51913;SDS011;37940;53.002;6.930;2023-01-16T10:26:03;8.23;;;2.65;;
51913;SDS011;37940;53.002;6.930;2023-01-16T10:33:35;5.57;;;2.53;;
51913;SDS011;37940;53.002;6.930;2023-01-16T10:36:11;5.20;;;2.60;;
51913;SDS011;37940;53.002;6.930;2023-01-16T10:38:44;5.18;;;2.17;;
51913;SDS011;37940;53.002;6.930;2023-01-16T10:41:20;6.13;;;2.78;;
51913;SDS011;37940;53.002;6.930;2023-01-16T10:47:26;9.02;;;4.40;;
51913;SDS011;37940;53.002;6.930;2023-01-16T10:50:16;6.78;;;2.60;;
51913;SDS011;37940;53.002;6.930;2023-01-16T10:52:43;9.45;;;3.83;;
51913;SDS011;37940;53.002;6.930;2023-01-16T10:55:10;6.97;;;2.83;;
51913;SDS011;37940;53.002;6.930;2023-01-16T10:57:47;5.70;;;2.80;;
51913;SDS011;37940;53.002;6.930;2023-01-16T11:00:20;5.70;;;2.30;;
51913;SDS011;37940;53.002;6.930;2023-01-16T11:02:58;6.88;;;2.58;;
51913;SDS011;37940;53.002;6.930;2023-01-16T11:05:35;5.05;;;2.28;;
51913;SDS011;37940;53.002;6.930;2023-01-16T11:08:06;7.75;;;2.45;;
51913;SDS011;37940;53.002;6.930;2023-01-16T11:10:34;6.82;;;2.60;;
51913;SDS011;37940;53.002;6.930;2023-01-16T11:13:01;4.50;;;2.15;;
51913;SDS011;37940;53.002;6.930;2023-01-16T11:16:02;6.80;;;2.60;;
51913;SDS011;37940;53.002;6.930;2023-01-16T11:18:47;6.53;;;2.80;;
51913;SDS011;37940;53.002;6.930;2023-01-16T11:21:23;6.88;;;2.63;;
51913;SDS011;37940;53.002;6.930;2023-01-16T11:26:39;6.57;;;2.40;;
51913;SDS011;37940;53.002;6.930;2023-01-16T11:29:06;5.22;;;2.28;;
51913;SDS011;37940;53.002;6.930;2023-01-16T11:31:41;7.15;;;2.20;;
51913;SDS011;37940;53.002;6.930;2023-01-16T11:34:13;4.72;;;2.10;;
51913;SDS011;37940;53.002;6.930;2023-01-16T11:36:43;6.03;;;2.75;;
51913;SDS011;37940;53.002;6.930;2023-01-16T11:39:15;7.28;;;2.70;;
51913;SDS011;37940;53.002;6.930;2023-01-16T11:41:46;7.47;;;3.10;;
51913;SDS011;37940;53.002;6.930;2023-01-16T11:44:16;7.72;;;2.80;;
51913;SDS011;37940;53.002;6.930;2023-01-16T11:47:18;8.25;;;2.72;;
51913;SDS011;37940;53.002;6.930;2023-01-16T11:49:51;4.57;;;2.65;;
51913;SDS011;37940;53.002;6.930;2023-01-16T11:52:19;5.93;;;2.70;;
51913;SDS011;37940;53.002;6.930;2023-01-16T11:54:59;6.95;;;2.95;;
51913;SDS011;37940;53.002;6.930;2023-01-16T11:57:29;5.43;;;2.60;;
51913;SDS011;37940;53.002;6.930;2023-01-16T12:25:05;6.93;;;3.00;;
51913;SDS011;37940;53.002;6.930;2023-01-16T12:35:14;5.50;;;3.15;;
51913;SDS011;37940;53.002;6.930;2023-01-16T12:41:23;7.63;;;3.40;;
51913;SDS011;37940;53.002;6.930;2023-01-16T12:43:57;10.68;;;3.65;;
51913;SDS011;37940;53.002;6.930;2023-01-16T12:49:25;11.43;;;6.50;;
51913;SDS011;37940;53.002;6.930;2023-01-16T12:54:39;6.20;;;3.35;;
51913;SDS011;37940;53.002;6.930;2023-01-16T12:59:41;8.10;;;3.92;;
51913;SDS011;37940;53.002;6.930;2023-01-16T13:02:19;10.23;;;4.10;;
51913;SDS011;37940;53.002;6.930;2023-01-16T13:05:11;7.68;;;3.75;;
51913;SDS011;37940;53.002;6.930;2023-01-16T13:07:51;9.25;;;4.05;;
51913;SDS011;37940;53.002;6.930;2023-01-16T13:10:41;6.45;;;4.13;;
51913;SDS011;37940;53.002;6.930;2023-01-16T13:13:31;7.03;;;3.95;;
51913;SDS011;37940;53.002;6.930;2023-01-16T13:16:15;6.60;;;3.42;;
51913;SDS011;37940;53.002;6.930;2023-01-16T13:19:00;6.55;;;3.28;;
51913;SDS011;37940;53.002;6.930;2023-01-16T13:21:39;7.90;;;3.22;;
51913;SDS011;37940;53.002;6.930;2023-01-16T13:24:17;5.68;;;3.72;;
51913;SDS011;37940;53.002;6.930;2023-01-16T13:26:53;7.03;;;3.10;;
51913;SDS011;37940;53.002;6.930;2023-01-16T13:29:24;5.90;;;3.00;;
51913;SDS011;37940;53.002;6.930;2023-01-16T13:31:58;6.22;;;3.00;;
51913;SDS011;37940;53.002;6.930;2023-01-16T13:34:51;6.13;;;2.78;;
51913;SDS011;37940;53.002;6.930;2023-01-16T13:40:27;7.38;;;2.50;;
51913;SDS011;37940;53.002;6.930;2023-01-16T13:43:20;5.38;;;2.35;;
51913;SDS011;37940;53.002;6.930;2023-01-16T13:46:08;5.03;;;2.70;;
51913;SDS011;37940;53.002;6.930;2023-01-16T13:48:35;5.65;;;2.72;;
51913;SDS011;37940;53.002;6.930;2023-01-16T13:51:03;5.88;;;2.70;;
51913;SDS011;37940;53.002;6.930;2023-01-16T13:53:36;8.38;;;3.70;;
51913;SDS011;37940;53.002;6.930;2023-01-16T13:58:38;16.23;;;7.70;;
51913;SDS011;37940;53.002;6.930;2023-01-16T14:01:07;18.48;;;8.05;;
51913;SDS011;37940;53.002;6.930;2023-01-16T14:04:22;12.63;;;6.47;;
51913;SDS011;37940;53.002;6.930;2023-01-16T14:06:50;6.72;;;4.40;;
51913;SDS011;37940;53.002;6.930;2023-01-16T14:10:41;7.72;;;4.25;;
51913;SDS011;37940;53.002;6.930;2023-01-16T14:12:35;8.27;;;5.32;;
51913;SDS011;37940;53.002;6.930;2023-01-16T14:15:20;5.97;;;3.08;;
51913;SDS011;37940;53.002;6.930;2023-01-16T14:20:44;4.53;;;2.55;;
51913;SDS011;37940;53.002;6.930;2023-01-16T14:23:34;6.80;;;2.85;;
51913;SDS011;37940;53.002;6.930;2023-01-16T14:26:33;4.40;;;2.33;;
51913;SDS011;37940;53.002;6.930;2023-01-16T14:32:02;3.92;;;2.20;;
51913;SDS011;37940;53.002;6.930;2023-01-16T14:34:41;4.35;;;2.35;;
51913;SDS011;37940;53.002;6.930;2023-01-16T14:37:35;5.25;;;2.50;;
51913;SDS011;37940;53.002;6.930;2023-01-16T14:45:34;5.25;;;3.13;;
51913;SDS011;37940;53.002;6.930;2023-01-16T14:56:40;8.40;;;2.97;;
51913;SDS011;37940;53.002;6.930;2023-01-16T14:59:09;8.13;;;3.00;;
51913;SDS011;37940;53.002;6.930;2023-01-16T15:01:59;3.47;;;2.00;;
51913;SDS011;37940;53.002;6.930;2023-01-16T15:07:14;6.68;;;2.60;;
51913;SDS011;37940;53.002;6.930;2023-01-16T15:09:42;4.85;;;2.30;;
51913;SDS011;37940;53.002;6.930;2023-01-16T15:12:13;3.50;;;2.22;;
51913;SDS011;37940;53.002;6.930;2023-01-16T15:14:55;5.03;;;2.33;;
51913;SDS011;37940;53.002;6.930;2023-01-16T15:17:31;3.20;;;2.08;;
51913;SDS011;37940;53.002;6.930;2023-01-16T15:20:28;6.75;;;2.60;;
51913;SDS011;37940;53.002;6.930;2023-01-16T15:23:30;5.15;;;2.83;;
51913;SDS011;37940;53.002;6.930;2023-01-16T15:31:06;6.93;;;4.00;;
51913;SDS011;37940;53.002;6.930;2023-01-16T15:33:41;3.55;;;2.15;;
51913;SDS011;37940;53.002;6.930;2023-01-16T15:41:42;4.90;;;2.60;;
51913;SDS011;37940;53.002;6.930;2023-01-16T15:44:33;4.15;;;2.53;;
51913;SDS011;37940;53.002;6.930;2023-01-16T15:52:29;5.55;;;3.30;;
51913;SDS011;37940;53.002;6.930;2023-01-16T15:54:57;4.47;;;2.50;;
51913;SDS011;37940;53.002;6.930;2023-01-16T15:57:24;4.50;;;2.58;;
51913;SDS011;37940;53.002;6.930;2023-01-16T15:59:54;4.82;;;2.40;;
51913;SDS011;37940;53.002;6.930;2023-01-16T16:02:24;2.95;;;2.22;;
51913;SDS011;37940;53.002;6.930;2023-01-16T16:04:54;4.47;;;2.20;;
51913;SDS011;37940;53.002;6.930;2023-01-16T16:07:23;3.25;;;2.13;;
51913;SDS011;37940;53.002;6.930;2023-01-16T16:09:51;5.13;;;2.35;;
51913;SDS011;37940;53.002;6.930;2023-01-16T16:12:19;3.78;;;2.60;;
51913;SDS011;37940;53.002;6.930;2023-01-16T16:14:46;5.90;;;3.15;;
51913;SDS011;37940;53.002;6.930;2023-01-16T16:17:31;6.93;;;3.97;;
51913;SDS011;37940;53.002;6.930;2023-01-16T16:20:37;29.63;;;13.50;;
51913;SDS011;37940;53.002;6.930;2023-01-16T16:33:28;11.57;;;5.10;;
51913;SDS011;37940;53.002;6.930;2023-01-16T16:35:55;10.23;;;6.38;;
51913;SDS011;37940;53.002;6.930;2023-01-16T16:38:25;7.38;;;4.68;;
51913;SDS011;37940;53.002;6.930;2023-01-16T16:43:48;5.28;;;3.90;;
51913;SDS011;37940;53.002;6.930;2023-01-16T16:48:51;7.82;;;5.35;;
51913;SDS011;37940;53.002;6.930;2023-01-16T16:51:44;9.13;;;6.00;;
51913;SDS011;37940;53.002;6.930;2023-01-16T16:54:12;7.72;;;4.50;;
51913;SDS011;37940;53.002;6.930;2023-01-16T16:56:42;5.60;;;3.90;;
51913;SDS011;37940;53.002;6.930;2023-01-16T16:59:17;7.65;;;3.90;;
51913;SDS011;37940;53.002;6.930;2023-01-16T17:01:55;6.30;;;4.18;;
51913;SDS011;37940;53.002;6.930;2023-01-16T17:04:28;7.40;;;4.45;;
51913;SDS011;37940;53.002;6.930;2023-01-16T17:06:55;7.30;;;4.40;;
51913;SDS011;37940;53.002;6.930;2023-01-16T17:09:24;7.45;;;4.78;;
51913;SDS011;37940;53.002;6.930;2023-01-16T17:11:50;22.52;;;12.73;;
51913;SDS011;37940;53.002;6.930;2023-01-16T17:14:16;25.60;;;13.32;;
51913;SDS011;37940;53.002;6.930;2023-01-16T17:16:42;8.38;;;5.80;;
51913;SDS011;37940;53.002;6.930;2023-01-16T17:21:54;13.85;;;7.70;;
51913;SDS011;37940;53.002;6.930;2023-01-16T17:24:20;9.95;;;5.88;;
51913;SDS011;37940;53.002;6.930;2023-01-16T17:26:46;9.68;;;6.28;;
51913;SDS011;37940;53.002;6.930;2023-01-16T17:29:13;13.52;;;7.22;;
51913;SDS011;37940;53.002;6.930;2023-01-16T17:31:41;10.35;;;6.78;;
51913;SDS011;37940;53.002;6.930;2023-01-16T17:34:14;9.65;;;6.20;;
51913;SDS011;37940;53.002;6.930;2023-01-16T17:36:42;9.73;;;6.72;;
51913;SDS011;37940;53.002;6.930;2023-01-16T17:39:07;13.25;;;7.95;;
51913;SDS011;37940;53.002;6.930;2023-01-16T17:41:37;13.32;;;9.00;;
51913;SDS011;37940;53.002;6.930;2023-01-16T17:44:16;11.70;;;8.30;;
51913;SDS011;37940;53.002;6.930;2023-01-16T17:47:05;13.98;;;9.23;;
51913;SDS011;37940;53.002;6.930;2023-01-16T17:49:31;11.38;;;7.97;;
51913;SDS011;37940;53.002;6.930;2023-01-16T17:51:57;14.43;;;9.85;;
51913;SDS011;37940;53.002;6.930;2023-01-16T17:54:23;14.60;;;10.30;;
51913;SDS011;37940;53.002;6.930;2023-01-16T17:57:07;15.73;;;10.95;;
51913;SDS011;37940;53.002;6.930;2023-01-16T17:59:33;19.38;;;11.95;;
51913;SDS011;37940;53.002;6.930;2023-01-16T18:01:59;15.25;;;10.15;;
51913;SDS011;37940;53.002;6.930;2023-01-16T18:04:24;19.17;;;11.93;;
51913;SDS011;37940;53.002;6.930;2023-01-16T18:06:54;32.75;;;15.25;;
51913;SDS011;37940;53.002;6.930;2023-01-16T18:09:20;24.17;;;11.98;;
51913;SDS011;37940;53.002;6.930;2023-01-16T18:11:45;12.93;;;8.82;;
51913;SDS011;37940;53.002;6.930;2023-01-16T18:14:30;31.63;;;14.63;;
51913;SDS011;37940;53.002;6.930;2023-01-16T18:17:15;39.70;;;17.88;;